createdAt,value
2023-02-18T00:00:05.724Z,0.00
2023-02-18T00:01:05.687Z,0.00
2023-02-18T00:02:05.670Z,0.00
2023-02-18T00:03:05.609Z,0.00
2023-02-18T00:04:05.578Z,0.00
2023-02-18T00:05:05.539Z,0.00
2023-02-18T00:06:05.754Z,0.00
2023-02-18T00:07:05.464Z,0.00
2023-02-18T00:08:05.428Z,0.00
2023-02-18T00:09:05.420Z,0.00
2023-02-18T00:10:05.365Z,0.00
2023-02-18T00:11:05.324Z,0.00
2023-02-18T00:12:05.287Z,0.00
2023-02-18T00:13:05.265Z,0.00
2023-02-18T00:14:05.214Z,0.00
2023-02-18T00:15:05.181Z,0.00
2023-02-18T00:16:05.272Z,0.00
2023-02-18T00:17:05.107Z,0.00
2023-02-18T00:18:05.075Z,0.00
2023-02-18T00:19:05.040Z,0.00
2023-02-18T00:20:05.006Z,0.00
2023-02-18T00:21:04.975Z,0.00
2023-02-18T00:22:04.948Z,0.00
2023-02-18T00:23:04.905Z,0.00
2023-02-18T00:24:04.866Z,0.00
2023-02-18T00:25:04.833Z,0.00
2023-02-18T00:26:04.816Z,0.00
2023-02-18T00:27:04.754Z,0.00
2023-02-18T00:28:04.720Z,0.00
2023-02-18T00:29:04.703Z,0.00
2023-02-18T00:30:04.660Z,0.00
2023-02-18T00:31:04.712Z,0.00
2023-02-18T00:32:04.616Z,0.00
2023-02-18T00:33:04.537Z,0.00
2023-02-18T00:34:04.506Z,0.00
2023-02-18T00:35:04.469Z,0.00
2023-02-18T00:36:04.432Z,0.00
2023-02-18T00:37:04.404Z,0.00
2023-02-18T00:38:04.373Z,0.00
2023-02-18T00:39:04.357Z,0.00
2023-02-18T00:40:04.298Z,0.00
2023-02-18T00:41:04.264Z,0.00
2023-02-18T00:42:04.225Z,0.00
2023-02-18T00:43:04.186Z,0.00
2023-02-18T00:44:04.149Z,0.00
2023-02-18T00:45:04.114Z,0.00
2023-02-18T00:46:04.109Z,0.00
2023-02-18T00:47:04.049Z,0.00
2023-02-18T00:48:04.010Z,0.00
2023-02-18T00:49:03.972Z,0.00
2023-02-18T00:50:03.941Z,0.00
2023-02-18T00:51:03.900Z,0.00
2023-02-18T00:52:03.875Z,0.00
2023-02-18T00:53:03.829Z,0.00
2023-02-18T00:54:03.819Z,0.00
2023-02-18T00:55:03.770Z,0.00
2023-02-18T00:56:03.732Z,0.00
2023-02-18T00:57:03.689Z,0.00
2023-02-18T00:58:03.655Z,0.00
2023-02-18T00:59:03.628Z,0.00
2023-02-18T01:00:03.578Z,0.00
2023-02-18T01:01:04.209Z,0.00
2023-02-18T01:02:03.510Z,0.00
2023-02-18T01:03:03.483Z,0.00
2023-02-18T01:04:03.440Z,0.00
2023-02-18T01:05:03.445Z,0.00
2023-02-18T01:06:03.366Z,0.00
2023-02-18T01:07:03.333Z,0.00
2023-02-18T01:08:03.308Z,0.00
2023-02-18T01:09:03.264Z,0.00
2023-02-18T01:10:03.358Z,0.00
2023-02-18T01:11:03.193Z,0.00
2023-02-18T01:12:03.158Z,0.00
2023-02-18T01:13:03.117Z,0.00
2023-02-18T01:14:03.086Z,0.00
2023-02-18T01:15:03.052Z,0.00
2023-02-18T01:16:03.077Z,0.00
2023-02-18T01:17:03.006Z,0.00
2023-02-18T01:18:02.940Z,0.00
2023-02-18T01:19:02.905Z,0.00
2023-02-18T01:20:02.882Z,0.00
2023-02-18T01:21:02.842Z,0.00
2023-02-18T01:22:02.810Z,0.00
2023-02-18T01:23:02.775Z,0.00
2023-02-18T01:24:02.728Z,0.00
2023-02-18T01:25:02.707Z,0.00
2023-02-18T01:26:02.662Z,0.00
2023-02-18T01:27:02.630Z,0.00
2023-02-18T01:28:02.594Z,0.00
2023-02-18T01:29:02.547Z,0.00
2023-02-18T01:30:02.529Z,0.00
2023-02-18T01:31:02.597Z,0.00
2023-02-18T01:32:02.660Z,0.00
2023-02-18T01:33:02.404Z,0.00
2023-02-18T01:34:02.380Z,0.00
2023-02-18T01:35:02.338Z,0.00
2023-02-18T01:36:02.302Z,0.00
2023-02-18T01:37:02.268Z,0.00
2023-02-18T01:38:02.229Z,0.00
2023-02-18T01:39:02.196Z,0.00
2023-02-18T01:40:02.166Z,0.00
2023-02-18T01:41:02.115Z,0.00
2023-02-18T01:42:02.092Z,0.00
2023-02-18T01:43:02.072Z,0.00
2023-02-18T01:44:02.019Z,0.00
2023-02-18T01:45:01.978Z,0.00
2023-02-18T01:46:01.944Z,0.00
2023-02-18T01:47:01.904Z,0.00
2023-02-18T01:48:01.865Z,0.00
2023-02-18T01:49:01.836Z,0.00
2023-02-18T01:50:01.792Z,0.00
2023-02-18T01:51:01.762Z,0.00
2023-02-18T01:52:01.725Z,0.00
2023-02-18T01:53:01.689Z,0.00
2023-02-18T01:54:01.658Z,0.00
2023-02-18T01:55:01.617Z,0.00
2023-02-18T01:56:01.582Z,0.00
2023-02-18T01:57:01.559Z,0.00
2023-02-18T01:58:01.529Z,0.00
2023-02-18T01:59:01.479Z,0.00
2023-02-18T02:00:01.431Z,0.00
2023-02-18T02:01:01.425Z,0.00
2023-02-18T02:02:01.411Z,0.00
2023-02-18T02:03:01.349Z,0.00
2023-02-18T02:04:01.297Z,0.00
2023-02-18T02:05:01.251Z,0.00
2023-02-18T02:06:01.215Z,0.00
2023-02-18T02:07:01.191Z,0.00
2023-02-18T02:08:01.156Z,0.00
2023-02-18T02:09:01.112Z,0.00
2023-02-18T02:10:01.079Z,0.00
2023-02-18T02:11:01.046Z,0.00
2023-02-18T02:12:01.007Z,0.00
2023-02-18T02:13:00.968Z,0.00
2023-02-18T02:14:00.944Z,0.00
2023-02-18T02:15:00.900Z,0.00
2023-02-18T02:16:00.886Z,0.00
2023-02-18T02:17:00.822Z,0.00
2023-02-18T02:18:00.793Z,0.00
2023-02-18T02:19:00.751Z,0.00
2023-02-18T02:20:00.732Z,0.00
2023-02-18T02:21:00.680Z,0.00
2023-02-18T02:22:00.644Z,0.00
2023-02-18T02:23:00.623Z,0.00
2023-02-18T02:24:00.583Z,0.00
2023-02-18T02:25:00.538Z,0.00
2023-02-18T02:26:00.531Z,0.00
2023-02-18T02:27:00.481Z,0.00
2023-02-18T02:28:00.437Z,0.00
2023-02-18T02:29:00.394Z,0.00
2023-02-18T02:30:00.391Z,0.00
2023-02-18T02:31:00.352Z,0.00
2023-02-18T02:32:00.336Z,0.00
2023-02-18T02:33:00.251Z,0.00
2023-02-18T02:34:00.215Z,0.00
2023-02-18T02:35:00.186Z,0.00
2023-02-18T02:36:00.160Z,0.00
2023-02-18T02:37:00.116Z,0.00
2023-02-18T02:38:00.098Z,0.00
2023-02-18T02:39:00.044Z,0.00
2023-02-18T02:40:00.005Z,0.00
2023-02-18T02:40:59.989Z,0.00
2023-02-18T02:41:59.930Z,0.00
2023-02-18T02:42:59.896Z,0.00
2023-02-18T02:43:59.860Z,0.00
2023-02-18T02:44:59.831Z,0.00
2023-02-18T02:45:59.885Z,0.00
2023-02-18T02:46:59.762Z,0.00
2023-02-18T02:47:59.728Z,0.00
2023-02-18T02:48:59.684Z,0.00
2023-02-18T02:49:59.649Z,0.00
2023-02-18T02:50:59.621Z,0.00
2023-02-18T02:51:59.607Z,0.00
2023-02-18T02:52:59.546Z,0.00
2023-02-18T02:53:59.514Z,0.00
2023-02-18T02:54:59.530Z,0.00
2023-02-18T02:55:59.434Z,0.00
2023-02-18T02:56:59.399Z,0.00
2023-02-18T02:57:59.367Z,0.00
2023-02-18T02:58:59.331Z,0.00
2023-02-18T02:59:59.294Z,0.00
2023-02-18T03:00:59.270Z,0.00
2023-02-18T03:01:59.242Z,0.00
2023-02-18T03:02:59.298Z,0.00
2023-02-18T03:03:59.150Z,0.00
2023-02-18T03:04:59.116Z,0.00
2023-02-18T03:05:59.081Z,0.00
2023-02-18T03:06:59.049Z,0.00
2023-02-18T03:07:59.006Z,0.00
2023-02-18T03:08:58.976Z,0.00
2023-02-18T03:09:58.936Z,0.00
2023-02-18T03:10:58.903Z,0.00
2023-02-18T03:11:58.863Z,0.00
2023-02-18T03:12:58.829Z,0.00
2023-02-18T03:13:58.815Z,0.00
2023-02-18T03:14:58.761Z,0.00
2023-02-18T03:15:58.721Z,0.00
2023-02-18T03:16:58.725Z,0.00
2023-02-18T03:17:58.657Z,0.00
2023-02-18T03:18:58.617Z,0.00
2023-02-18T03:19:58.583Z,0.00
2023-02-18T03:20:58.544Z,0.00
2023-02-18T03:21:58.509Z,0.00
2023-02-18T03:22:58.487Z,0.00
2023-02-18T03:23:58.448Z,0.00
2023-02-18T03:24:58.405Z,0.00
2023-02-18T03:25:58.366Z,0.00
2023-02-18T03:26:58.340Z,0.00
2023-02-18T03:27:58.303Z,0.00
2023-02-18T03:28:58.264Z,0.00
2023-02-18T03:29:58.258Z,0.00
2023-02-18T03:30:58.197Z,0.00
2023-02-18T03:31:58.285Z,0.00
2023-02-18T03:32:58.127Z,0.00
2023-02-18T03:33:58.138Z,0.00
2023-02-18T03:34:58.049Z,0.00
2023-02-18T03:35:58.017Z,0.00
2023-02-18T03:36:57.983Z,0.00
2023-02-18T03:37:57.956Z,0.00
2023-02-18T03:38:57.941Z,0.00
2023-02-18T03:39:57.868Z,0.00
2023-02-18T03:40:57.839Z,0.00
2023-02-18T03:41:57.812Z,0.00
2023-02-18T03:42:57.772Z,0.00
2023-02-18T03:43:57.753Z,0.00
2023-02-18T03:44:57.695Z,0.00
2023-02-18T03:45:57.667Z,0.00
2023-02-18T03:46:57.622Z,0.00
2023-02-18T03:47:57.590Z,0.00
2023-02-18T03:48:57.556Z,0.00
2023-02-18T03:49:57.519Z,0.00
2023-02-18T03:50:57.483Z,0.00
2023-02-18T03:51:57.455Z,0.00
2023-02-18T03:52:57.414Z,0.00
2023-02-18T03:53:57.374Z,0.00
2023-02-18T03:54:57.338Z,0.00
2023-02-18T03:55:57.311Z,0.00
2023-02-18T03:56:57.264Z,0.00
2023-02-18T03:57:57.222Z,0.00
2023-02-18T03:58:57.190Z,0.00
2023-02-18T03:59:57.172Z,0.00
2023-02-18T04:00:57.168Z,0.00
2023-02-18T04:01:57.106Z,0.00
2023-02-18T04:02:57.051Z,0.00
2023-02-18T04:03:57.083Z,0.00
2023-02-18T04:04:56.976Z,0.00
2023-02-18T04:05:56.946Z,0.00
2023-02-18T04:06:56.916Z,0.00
2023-02-18T04:07:56.870Z,0.00
2023-02-18T04:08:56.838Z,0.00
2023-02-18T04:09:56.794Z,0.00
2023-02-18T04:10:56.767Z,0.00
2023-02-18T04:11:56.721Z,0.00
2023-02-18T04:12:56.689Z,0.00
2023-02-18T04:13:56.704Z,0.00
2023-02-18T04:14:56.617Z,0.00
2023-02-18T04:15:56.587Z,0.00
2023-02-18T04:16:56.561Z,0.00
2023-02-18T04:17:56.514Z,0.00
2023-02-18T04:18:56.472Z,0.00
2023-02-18T04:19:56.442Z,0.00
2023-02-18T04:20:56.404Z,0.00
2023-02-18T04:21:56.443Z,0.00
2023-02-18T04:22:56.331Z,0.00
2023-02-18T04:23:56.313Z,0.00
2023-02-18T04:24:56.317Z,0.00
2023-02-18T04:25:56.234Z,0.00
2023-02-18T04:26:56.203Z,0.00
2023-02-18T04:27:56.155Z,0.00
2023-02-18T04:28:56.115Z,0.00
2023-02-18T04:29:56.080Z,0.00
2023-02-18T04:30:56.066Z,0.00
2023-02-18T04:31:56.027Z,0.00
2023-02-18T04:32:55.975Z,0.00
2023-02-18T04:33:55.936Z,0.00
2023-02-18T04:34:55.905Z,0.00
2023-02-18T04:35:55.867Z,0.00
2023-02-18T04:36:55.856Z,0.00
2023-02-18T04:37:55.797Z,0.00
2023-02-18T04:38:55.761Z,0.00
2023-02-18T04:39:55.730Z,0.00
2023-02-18T04:40:55.688Z,0.00
2023-02-18T04:41:55.656Z,0.00
2023-02-18T04:42:55.622Z,0.00
2023-02-18T04:43:55.654Z,0.00
2023-02-18T04:44:55.547Z,0.00
2023-02-18T04:45:55.552Z,0.00
2023-02-18T04:46:55.475Z,0.00
2023-02-18T04:47:55.435Z,0.00
2023-02-18T04:48:55.404Z,0.00
2023-02-18T04:49:55.367Z,0.00
2023-02-18T04:50:55.329Z,0.00
2023-02-18T04:51:55.302Z,0.00
2023-02-18T04:52:55.264Z,0.00
2023-02-18T04:53:55.230Z,0.00
2023-02-18T04:54:55.189Z,0.00
2023-02-18T04:55:55.148Z,0.00
2023-02-18T04:56:55.114Z,0.00
2023-02-18T04:57:55.080Z,0.00
2023-02-18T04:58:55.041Z,0.00
2023-02-18T04:59:55.011Z,0.00
2023-02-18T05:00:54.975Z,0.00
2023-02-18T05:01:54.946Z,0.00
2023-02-18T05:02:54.911Z,0.00
2023-02-18T05:03:54.885Z,0.00
2023-02-18T05:04:54.833Z,0.00
2023-02-18T05:05:54.825Z,0.00
2023-02-18T05:06:54.768Z,0.00
2023-02-18T05:07:54.726Z,0.00
2023-02-18T05:08:54.691Z,0.00
2023-02-18T05:09:54.657Z,0.00
2023-02-18T05:10:54.634Z,0.00
2023-02-18T05:11:54.585Z,0.00
2023-02-18T05:12:54.563Z,0.00
2023-02-18T05:13:54.512Z,0.00
2023-02-18T05:14:54.476Z,0.00
2023-02-18T05:15:54.532Z,0.00
2023-02-18T05:16:54.423Z,0.00
2023-02-18T05:17:54.367Z,0.00
2023-02-18T05:18:54.332Z,0.00
2023-02-18T05:19:54.300Z,0.00
2023-02-18T05:20:54.267Z,0.00
2023-02-18T05:21:54.236Z,0.00
2023-02-18T05:22:54.191Z,0.00
2023-02-18T05:23:54.156Z,0.00
2023-02-18T05:24:54.122Z,0.00
2023-02-18T05:25:54.101Z,0.00
2023-02-18T05:26:54.050Z,0.00
2023-02-18T05:27:54.015Z,0.00
2023-02-18T05:28:53.976Z,0.00
2023-02-18T05:29:53.941Z,0.00
2023-02-18T05:30:53.968Z,0.00
2023-02-18T05:31:53.993Z,0.00
2023-02-18T05:32:53.837Z,0.00
2023-02-18T05:33:53.796Z,0.00
2023-02-18T05:34:53.758Z,0.00
2023-02-18T05:35:53.724Z,0.00
2023-02-18T05:36:53.694Z,0.00
2023-02-18T05:37:53.653Z,0.00
2023-02-18T05:38:53.629Z,0.00
2023-02-18T05:39:53.581Z,0.00
2023-02-18T05:40:53.543Z,0.00
2023-02-18T05:41:53.510Z,0.00
2023-02-18T05:42:53.471Z,0.00
2023-02-18T05:43:53.431Z,0.00
2023-02-18T05:44:53.402Z,0.00
2023-02-18T05:45:53.376Z,0.00
2023-02-18T05:46:53.325Z,0.00
2023-02-18T05:47:53.297Z,0.00
2023-02-18T05:48:53.257Z,0.00
2023-02-18T05:49:53.218Z,0.00
2023-02-18T05:50:53.190Z,0.00
2023-02-18T05:51:53.163Z,0.00
2023-02-18T05:52:53.113Z,0.00
2023-02-18T05:53:53.083Z,0.00
2023-02-18T05:54:53.037Z,0.00
2023-02-18T05:55:53.006Z,0.00
2023-02-18T05:56:52.965Z,0.00
2023-02-18T05:57:52.937Z,0.00
2023-02-18T05:58:52.896Z,0.00
2023-02-18T05:59:52.863Z,0.00
2023-02-18T06:00:52.818Z,0.00
2023-02-18T06:01:52.784Z,0.00
2023-02-18T06:02:52.784Z,0.00
2023-02-18T06:03:52.718Z,0.00
2023-02-18T06:04:52.685Z,0.00
2023-02-18T06:05:52.791Z,0.00
2023-02-18T06:06:52.605Z,0.00
2023-02-18T06:07:53.463Z,0.00
2023-02-18T06:08:52.537Z,0.00
2023-02-18T06:09:52.498Z,0.00
2023-02-18T06:10:52.464Z,0.00
2023-02-18T06:11:52.433Z,0.00
2023-02-18T06:12:52.389Z,0.00
2023-02-18T06:13:52.361Z,0.00
2023-02-18T06:14:52.323Z,0.00
2023-02-18T06:15:52.344Z,0.00
2023-02-18T06:16:52.250Z,0.00
2023-02-18T06:17:52.218Z,0.00
2023-02-18T06:18:52.174Z,0.00
2023-02-18T06:19:52.154Z,0.00
2023-02-18T06:20:52.111Z,0.00
2023-02-18T06:21:52.074Z,0.00
2023-02-18T06:22:52.043Z,0.00
2023-02-18T06:23:51.998Z,4.00
2023-02-18T06:24:51.974Z,4.00
2023-02-18T06:25:51.934Z,0.00
2023-02-18T06:26:51.888Z,4.00
2023-02-18T06:27:51.852Z,4.00
2023-02-18T06:28:51.815Z,4.00
2023-02-18T06:29:51.780Z,8.00
2023-02-18T06:30:51.742Z,4.00
2023-02-18T06:31:51.753Z,8.00
2023-02-18T06:32:51.671Z,8.00
2023-02-18T06:33:51.640Z,8.00
2023-02-18T06:34:51.601Z,12.00
2023-02-18T06:35:51.563Z,12.00
2023-02-18T06:36:51.525Z,12.00
2023-02-18T06:37:51.492Z,16.00
2023-02-18T06:38:51.457Z,16.00
2023-02-18T06:39:51.417Z,16.00
2023-02-18T06:40:51.379Z,16.00
2023-02-18T06:41:51.348Z,16.00
2023-02-18T06:42:51.309Z,16.00
2023-02-18T06:43:51.276Z,16.00
2023-02-18T06:44:51.237Z,16.00
2023-02-18T06:45:51.202Z,24.00
2023-02-18T06:46:51.168Z,24.00
2023-02-18T06:47:51.161Z,28.00
2023-02-18T06:48:51.103Z,28.00
2023-02-18T06:49:51.061Z,28.00
2023-02-18T06:50:51.032Z,36.00
2023-02-18T06:51:50.987Z,36.00
2023-02-18T06:52:50.950Z,44.00
2023-02-18T06:53:50.913Z,52.00
2023-02-18T06:54:50.881Z,52.00
2023-02-18T06:55:50.846Z,56.00
2023-02-18T06:56:50.835Z,72.00
2023-02-18T06:57:50.770Z,76.00
2023-02-18T06:58:50.736Z,80.00
2023-02-18T06:59:50.703Z,80.00
2023-02-18T07:00:50.699Z,76.00
2023-02-18T07:01:50.630Z,68.00
2023-02-18T07:02:50.593Z,80.00
2023-02-18T07:03:50.621Z,92.00
2023-02-18T07:04:50.526Z,96.00
2023-02-18T07:05:50.489Z,108.00
2023-02-18T07:06:50.456Z,112.00
2023-02-18T07:07:50.421Z,120.00
2023-02-18T07:08:50.379Z,132.00
2023-02-18T07:09:50.338Z,128.00
2023-02-18T07:10:50.310Z,124.00
2023-02-18T07:11:50.265Z,120.00
2023-02-18T07:12:50.231Z,124.00
2023-02-18T07:13:50.204Z,124.00
2023-02-18T07:14:50.158Z,108.00
2023-02-18T07:15:50.136Z,140.00
2023-02-18T07:16:50.091Z,172.00
2023-02-18T07:17:50.059Z,160.00
2023-02-18T07:18:50.024Z,148.00
2023-02-18T07:19:50.025Z,160.00
2023-02-18T07:20:49.945Z,172.00
2023-02-18T07:21:49.917Z,188.00
2023-02-18T07:22:49.877Z,240.00
2023-02-18T07:23:49.838Z,232.00
2023-02-18T07:24:49.831Z,224.00
2023-02-18T07:25:49.770Z,212.00
2023-02-18T07:26:49.729Z,200.00
2023-02-18T07:27:49.701Z,168.00
2023-02-18T07:28:49.659Z,168.00
2023-02-18T07:29:49.625Z,188.00
2023-02-18T07:30:49.589Z,188.00
2023-02-18T07:31:49.764Z,172.00
2023-02-18T07:32:49.513Z,172.00
2023-02-18T07:33:49.484Z,160.00
2023-02-18T07:34:49.454Z,156.00
2023-02-18T07:35:49.408Z,164.00
2023-02-18T07:36:49.376Z,188.00
2023-02-18T07:37:49.338Z,172.00
2023-02-18T07:38:49.324Z,168.00
2023-02-18T07:39:49.264Z,188.00
2023-02-18T07:40:49.227Z,176.00
2023-02-18T07:41:49.197Z,176.00
2023-02-18T07:42:49.177Z,180.00
2023-02-18T07:43:49.125Z,220.00
2023-02-18T07:44:49.093Z,232.00
2023-02-18T07:45:49.152Z,256.00
2023-02-18T07:46:49.021Z,280.00
2023-02-18T07:47:48.985Z,284.00
2023-02-18T07:48:48.948Z,252.00
2023-02-18T07:49:48.909Z,288.00
2023-02-18T07:50:48.879Z,316.00
2023-02-18T07:51:48.834Z,264.00
2023-02-18T07:52:48.803Z,200.00
2023-02-18T07:53:48.781Z,196.00
2023-02-18T07:54:48.725Z,200.00
2023-02-18T07:55:48.703Z,196.00
2023-02-18T07:56:48.650Z,188.00
2023-02-18T07:57:48.619Z,228.00
2023-02-18T07:58:48.587Z,224.00
2023-02-18T07:59:48.546Z,224.00
2023-02-18T08:00:48.506Z,236.00
2023-02-18T08:01:48.522Z,240.00
2023-02-18T08:02:48.445Z,192.00
2023-02-18T08:03:48.421Z,160.00
2023-02-18T08:04:48.380Z,172.00
2023-02-18T08:05:48.347Z,140.00
2023-02-18T08:06:48.300Z,140.00
2023-02-18T08:07:48.266Z,148.00
2023-02-18T08:08:48.223Z,152.00
2023-02-18T08:09:48.187Z,144.00
2023-02-18T08:10:48.152Z,152.00
2023-02-18T08:11:48.125Z,160.00
2023-02-18T08:12:48.086Z,184.00
2023-02-18T08:13:48.054Z,192.00
2023-02-18T08:14:48.012Z,208.00
2023-02-18T08:15:47.977Z,212.00
2023-02-18T08:16:47.975Z,216.00
2023-02-18T08:17:47.905Z,220.00
2023-02-18T08:18:47.897Z,240.00
2023-02-18T08:19:47.832Z,224.00
2023-02-18T08:20:47.815Z,244.00
2023-02-18T08:21:47.767Z,248.00
2023-02-18T08:22:47.724Z,272.00
2023-02-18T08:23:47.692Z,252.00
2023-02-18T08:24:47.686Z,216.00
2023-02-18T08:25:49.999Z,212.00
2023-02-18T08:26:59.733Z,196.00
2023-02-18T08:27:47.550Z,192.00
2023-02-18T08:28:47.506Z,184.00
2023-02-18T08:29:47.481Z,192.00
2023-02-18T08:30:47.492Z,200.00
2023-02-18T08:31:47.504Z,196.00
2023-02-18T08:32:47.366Z,212.00
2023-02-18T08:33:47.356Z,240.00
2023-02-18T08:34:47.301Z,280.00
2023-02-18T08:35:47.337Z,316.00
2023-02-18T08:36:47.226Z,324.00
2023-02-18T08:37:53.701Z,276.00
2023-02-18T08:38:47.157Z,260.00
2023-02-18T08:39:47.122Z,280.00
2023-02-18T08:40:47.083Z,340.00
2023-02-18T08:41:47.060Z,332.00
2023-02-18T08:42:47.009Z,300.00
2023-02-18T08:43:46.982Z,280.00
2023-02-18T08:44:46.938Z,240.00
2023-02-18T08:45:46.978Z,216.00
2023-02-18T08:46:46.938Z,228.00
2023-02-18T08:48:18.416Z,232.00
2023-02-18T08:48:46.793Z,224.00
2023-02-18T08:49:46.773Z,224.00
2023-02-18T08:50:46.760Z,248.00
2023-02-18T08:51:46.715Z,236.00
2023-02-18T08:52:46.647Z,288.00
2023-02-18T08:53:46.642Z,308.00
2023-02-18T08:54:46.585Z,324.00
2023-02-18T08:55:46.547Z,352.00
2023-02-18T08:56:46.509Z,356.00
2023-02-18T08:57:46.481Z,352.00
2023-02-18T08:58:46.442Z,308.00
2023-02-18T08:59:46.399Z,332.00
2023-02-18T09:00:46.372Z,348.00
2023-02-18T09:01:46.353Z,344.00
2023-02-18T09:02:46.286Z,396.00
2023-02-18T09:03:46.258Z,372.00
2023-02-18T09:04:46.282Z,412.00
2023-02-18T09:05:46.185Z,420.00
2023-02-18T09:06:46.151Z,476.00
2023-02-18T09:07:46.155Z,568.00
2023-02-18T09:08:46.076Z,572.00
2023-02-18T09:09:46.041Z,500.00
2023-02-18T09:10:46.340Z,468.00
2023-02-18T09:11:45.967Z,476.00
2023-02-18T09:12:45.930Z,468.00
2023-02-18T09:13:45.898Z,464.00
2023-02-18T09:14:45.870Z,436.00
2023-02-18T09:15:45.844Z,460.00
2023-02-18T09:16:45.788Z,464.00
2023-02-18T09:17:45.763Z,528.00
2023-02-18T09:18:45.717Z,544.00
2023-02-18T09:19:45.677Z,488.00
2023-02-18T09:20:45.641Z,560.00
2023-02-18T09:21:45.606Z,656.00
2023-02-18T09:22:45.580Z,692.00
2023-02-18T09:23:45.537Z,624.00
2023-02-18T09:24:45.498Z,596.00
2023-02-18T09:25:45.464Z,608.00
2023-02-18T09:26:45.424Z,564.00
2023-02-18T09:27:45.389Z,508.00
2023-02-18T09:28:45.357Z,472.00
2023-02-18T09:29:45.367Z,440.00
2023-02-18T09:30:45.289Z,440.00
2023-02-18T09:31:45.341Z,440.00
2023-02-18T09:32:45.230Z,408.00
2023-02-18T09:33:45.992Z,456.00
2023-02-18T09:34:45.138Z,480.00
2023-02-18T09:35:45.109Z,524.00
2023-02-18T09:36:45.068Z,568.00
2023-02-18T09:37:45.048Z,624.00
2023-02-18T09:38:44.997Z,692.00
2023-02-18T09:39:44.958Z,556.00
2023-02-18T09:40:44.924Z,468.00
2023-02-18T09:41:44.893Z,528.00
2023-02-18T09:42:44.848Z,540.00
2023-02-18T09:43:44.815Z,596.00
2023-02-18T09:44:44.787Z,700.00
2023-02-18T09:45:44.743Z,768.00
2023-02-18T09:46:44.706Z,872.00
2023-02-18T09:47:44.677Z,880.00
2023-02-18T09:48:44.669Z,748.00
2023-02-18T09:49:44.599Z,740.00
2023-02-18T09:50:44.564Z,668.00
2023-02-18T09:51:44.523Z,680.00
2023-02-18T09:52:44.493Z,644.00
2023-02-18T09:53:44.454Z,560.00
2023-02-18T09:54:44.424Z,528.00
2023-02-18T09:55:44.396Z,480.00
2023-02-18T09:56:44.345Z,436.00
2023-02-18T09:57:44.711Z,360.00
2023-02-18T09:58:44.303Z,348.00
2023-02-18T09:59:44.242Z,360.00
2023-02-18T10:00:44.208Z,376.00
2023-02-18T10:01:44.206Z,352.00
2023-02-18T10:02:44.134Z,316.00
2023-02-18T10:03:44.109Z,300.00
2023-02-18T10:04:44.081Z,304.00
2023-02-18T10:05:44.038Z,328.00
2023-02-18T10:06:43.997Z,352.00
2023-02-18T10:07:43.959Z,336.00
2023-02-18T10:08:43.932Z,320.00
2023-02-18T10:09:43.898Z,336.00
2023-02-18T10:10:43.856Z,400.00
2023-02-18T10:11:43.812Z,380.00
2023-02-18T10:12:43.784Z,384.00
2023-02-18T10:13:43.762Z,392.00
2023-02-18T10:14:43.704Z,388.00
2023-02-18T10:15:43.723Z,376.00
2023-02-18T10:16:43.685Z,336.00
2023-02-18T10:17:43.612Z,324.00
2023-02-18T10:18:43.606Z,324.00
2023-02-18T10:19:43.556Z,336.00
2023-02-18T10:20:43.496Z,388.00
2023-02-18T10:21:43.461Z,396.00
2023-02-18T10:22:43.421Z,428.00
2023-02-18T10:23:43.385Z,500.00
2023-02-18T10:24:43.354Z,512.00
2023-02-18T10:25:43.320Z,568.00
2023-02-18T10:26:43.280Z,624.00
2023-02-18T10:27:43.258Z,608.00
2023-02-18T10:28:43.226Z,672.00
2023-02-18T10:29:43.267Z,664.00
2023-02-18T10:30:43.140Z,640.00
2023-02-18T10:31:43.160Z,672.00
2023-02-18T10:32:43.116Z,576.00
2023-02-18T10:33:43.027Z,520.00
2023-02-18T10:34:43.020Z,524.00
2023-02-18T10:35:42.956Z,512.00
2023-02-18T10:36:42.923Z,472.00
2023-02-18T10:37:42.891Z,440.00
2023-02-18T10:38:42.854Z,500.00
2023-02-18T10:39:42.815Z,500.00
2023-02-18T10:40:42.785Z,552.00
2023-02-18T10:41:42.753Z,500.00
2023-02-18T10:42:42.716Z,532.00
2023-02-18T10:43:42.673Z,560.00
2023-02-18T10:44:42.644Z,488.00
2023-02-18T10:45:42.609Z,556.00
2023-02-18T10:46:42.634Z,476.00
2023-02-18T10:47:42.533Z,508.00
2023-02-18T10:48:42.499Z,464.00
2023-02-18T10:49:42.458Z,436.00
2023-02-18T10:50:42.446Z,432.00
2023-02-18T10:51:42.380Z,464.00
2023-02-18T10:52:42.356Z,440.00
2023-02-18T10:53:42.325Z,420.00
2023-02-18T10:54:42.283Z,408.00
2023-02-18T10:55:42.243Z,404.00
2023-02-18T10:56:42.212Z,444.00
2023-02-18T10:57:42.222Z,480.00
2023-02-18T10:58:42.139Z,496.00
2023-02-18T10:59:42.094Z,528.00
2023-02-18T11:00:42.063Z,624.00
2023-02-18T11:01:42.148Z,632.00
2023-02-18T11:02:42.019Z,648.00
2023-02-18T11:03:41.962Z,712.00
2023-02-18T11:04:41.954Z,724.00
2023-02-18T11:05:41.891Z,696.00
2023-02-18T11:06:41.844Z,716.00
2023-02-18T11:07:41.807Z,668.00
2023-02-18T11:08:41.772Z,600.00
2023-02-18T11:09:41.737Z,456.00
2023-02-18T11:10:41.708Z,432.00
2023-02-18T11:11:41.804Z,396.00
2023-02-18T11:12:41.626Z,424.00
2023-02-18T11:13:41.598Z,360.00
2023-02-18T11:14:41.563Z,368.00
2023-02-18T11:15:41.520Z,344.00
2023-02-18T11:16:41.486Z,376.00
2023-02-18T11:17:41.449Z,356.00
2023-02-18T11:18:41.412Z,348.00
2023-02-18T11:19:41.371Z,396.00
2023-02-18T11:20:41.368Z,416.00
2023-02-18T11:21:41.299Z,456.00
2023-02-18T11:22:41.282Z,444.00
2023-02-18T11:23:41.228Z,448.00
2023-02-18T11:24:41.192Z,476.00
2023-02-18T11:25:41.154Z,644.00
2023-02-18T11:26:41.119Z,576.00
2023-02-18T11:27:41.101Z,640.00
2023-02-18T11:28:41.047Z,588.00
2023-02-18T11:29:41.012Z,604.00
2023-02-18T11:30:41.012Z,624.00
2023-02-18T11:31:41.044Z,556.00
2023-02-18T11:32:40.900Z,516.00
2023-02-18T11:33:40.894Z,500.00
2023-02-18T11:34:40.836Z,552.00
2023-02-18T11:35:40.808Z,540.00
2023-02-18T11:36:40.757Z,452.00
2023-02-18T11:37:40.727Z,444.00
2023-02-18T11:38:40.691Z,428.00
2023-02-18T11:39:40.654Z,392.00
2023-02-18T11:40:40.619Z,380.00
2023-02-18T11:41:40.623Z,428.00
2023-02-18T11:42:40.544Z,412.00
2023-02-18T11:43:40.507Z,400.00
2023-02-18T11:44:40.484Z,392.00
2023-02-18T11:45:40.460Z,464.00
2023-02-18T11:46:40.516Z,564.00
2023-02-18T11:47:40.381Z,476.00
2023-02-18T11:48:40.335Z,424.00
2023-02-18T11:49:40.312Z,384.00
2023-02-18T11:50:40.256Z,400.00
2023-02-18T11:51:40.217Z,440.00
2023-02-18T11:52:40.204Z,432.00
2023-02-18T11:53:40.145Z,424.00
2023-02-18T11:54:40.113Z,448.00
2023-02-18T11:55:40.085Z,472.00
2023-02-18T11:56:40.036Z,520.00
2023-02-18T11:57:40.012Z,472.00
2023-02-18T11:58:39.984Z,408.00
2023-02-18T11:59:40.054Z,336.00
2023-02-18T12:00:40.065Z,312.00
2023-02-18T12:01:40.218Z,360.00
2023-02-18T12:02:39.840Z,444.00
2023-02-18T12:03:39.793Z,460.00
2023-02-18T12:04:39.755Z,496.00
2023-02-18T12:05:39.720Z,468.00
2023-02-18T12:06:39.681Z,528.00
2023-02-18T12:07:39.646Z,548.00
2023-02-18T12:08:39.606Z,580.00
2023-02-18T12:09:39.580Z,532.00
2023-02-18T12:10:39.538Z,600.00
2023-02-18T12:11:39.503Z,556.00
2023-02-18T12:12:39.465Z,564.00
2023-02-18T12:13:39.430Z,612.00
2023-02-18T12:14:39.389Z,584.00
2023-02-18T12:15:39.354Z,556.00
2023-02-18T12:16:39.382Z,560.00
2023-02-18T12:17:39.294Z,528.00
2023-02-18T12:18:41.164Z,556.00
2023-02-18T12:19:39.225Z,544.00
2023-02-18T12:20:39.175Z,560.00
2023-02-18T12:21:39.143Z,572.00
2023-02-18T12:22:39.102Z,572.00
2023-02-18T12:23:39.070Z,676.00
2023-02-18T12:24:39.042Z,692.00
2023-02-18T12:25:38.998Z,696.00
2023-02-18T12:26:38.958Z,672.00
2023-02-18T12:27:38.917Z,652.00
2023-02-18T12:28:38.895Z,660.00
2023-02-18T12:29:38.855Z,656.00
2023-02-18T12:30:38.815Z,668.00
2023-02-18T12:31:38.858Z,632.00
2023-02-18T12:32:38.744Z,712.00
2023-02-18T12:33:38.707Z,680.00
2023-02-18T12:34:38.681Z,756.00
2023-02-18T12:35:38.629Z,756.00
2023-02-18T12:36:38.597Z,688.00
2023-02-18T12:37:38.580Z,652.00
2023-02-18T12:38:38.563Z,676.00
2023-02-18T12:39:38.497Z,696.00
2023-02-18T12:40:38.456Z,664.00
2023-02-18T12:41:38.415Z,660.00
2023-02-18T12:42:38.384Z,752.00
2023-02-18T12:43:38.348Z,720.00
2023-02-18T12:44:38.310Z,708.00
2023-02-18T12:45:38.295Z,604.00
2023-02-18T12:46:38.233Z,540.00
2023-02-18T12:47:38.213Z,644.00
2023-02-18T12:48:38.183Z,708.00
2023-02-18T12:49:38.130Z,744.00
2023-02-18T12:50:38.092Z,816.00
2023-02-18T12:51:38.067Z,880.00
2023-02-18T12:52:38.023Z,884.00
2023-02-18T12:53:37.984Z,924.00